Time;durP1;ratioP1;P1;durP2;ratioP2;P2;SDS_P1;SDS_P2;PMS_P1;PMS_P2;Temp;Humidity;BMP_temperature;BMP_pressure;BME280_temperature;BME280_humidity;BME280_pressure;Samples;Min_cycle;Max_cycle;Signal;HPM_P1;HPM_P2
2023/03/20 00:01:22;;;;;;;7.07;5.53;;;;;;;18.64;62.98;101433.81;5076343;28;20466;-55
2023/03/20 00:03:50;;;;;;;6.55;4.38;;;;;;;18.62;62.96;101428.53;5076152;28;20382;-52
2023/03/20 00:06:20;;;;;;;6.45;5.47;;;;;;;18.63;63.19;101426.72;5076204;28;20066;-56
2023/03/20 00:08:51;;;;;;;8.90;5.38;;;;;;;18.64;62.91;101423.94;5076091;28;20048;-56
2023/03/20 00:11:27;;;;;;;5.35;4.78;;;;;;;18.62;63.18;101430.38;5076061;28;20040;-55
2023/03/20 00:13:58;;;;;;;7.93;5.63;;;;;;;18.63;63.01;101432.06;5076093;28;20040;-52
2023/03/20 00:16:30;;;;;;;7.38;5.40;;;;;;;18.62;62.90;101436.59;5075862;28;20048;-55
2023/03/20 00:18:58;;;;;;;6.53;4.70;;;;;;;18.62;62.86;101436.59;5075837;28;20048;-55
2023/03/20 00:21:26;;;;;;;6.45;5.13;;;;;;;18.62;62.96;101431.22;5075677;28;20398;-56
2023/03/20 00:23:54;;;;;;;6.90;5.25;;;;;;;18.62;62.98;101430.38;5075893;28;20040;-52
2023/03/20 00:26:29;;;;;;;7.00;5.35;;;;;;;18.62;62.89;101431.22;5075083;28;20053;-49
2023/03/20 00:28:57;;;;;;;6.88;5.30;;;;;;;18.62;62.86;101430.38;5073907;28;20060;-51
2023/03/20 00:31:28;;;;;;;7.22;5.38;;;;;;;18.62;62.98;101430.38;5074445;28;20055;-49
2023/03/20 00:34:02;;;;;;;6.35;5.22;;;;;;;18.62;62.70;101435.75;5075506;28;20040;-56
2023/03/20 00:36:30;;;;;;;6.38;4.85;;;;;;;18.61;62.58;101426.00;5057630;28;20510;-56
2023/03/20 00:38:58;;;;;;;6.82;5.22;;;;;;;18.60;62.87;101419.78;5074634;28;20059;-56
2023/03/20 00:41:31;;;;;;;5.50;4.65;;;;;;;18.60;62.64;101421.59;5074069;28;20511;-55
2023/03/20 00:44:05;;;;;;;6.32;5.25;;;;;;;18.60;62.57;101425.13;5074452;28;20055;-49
2023/03/20 00:46:37;;;;;;;8.52;5.47;;;;;;;18.60;62.58;101418.91;5075249;28;20056;-48
2023/03/20 00:49:06;;;;;;;8.75;5.40;;;;;;;18.60;62.58;101411.72;5075312;28;20040;-49
2023/03/20 00:51:33;;;;;;;7.47;6.00;;;;;;;18.61;62.68;101415.25;5075038;28;20406;-51
2023/03/20 00:54:00;;;;;;;11.55;5.60;;;;;;;18.61;62.47;101417.94;5074915;28;20048;-51
2023/03/20 00:56:37;;;;;;;6.25;5.13;;;;;;;18.60;62.55;101425.13;5075054;28;20410;-50
2023/03/20 00:59:06;;;;;;;7.88;5.13;;;;;;;18.60;62.18;101409.03;5074133;28;20052;-49
2023/03/20 01:01:33;;;;;;;7.43;5.43;;;;;;;18.60;62.42;101408.19;5074700;28;20048;-51
2023/03/20 01:04:00;;;;;;;6.43;5.30;;;;;;;18.60;62.49;101400.16;5074729;28;20044;-50
2023/03/20 01:06:30;;;;;;;7.80;5.47;;;;;;;18.59;62.23;101404.63;5075097;28;20051;-51
2023/03/20 01:08:57;;;;;;;8.43;5.35;;;;;;;18.60;62.40;101403.69;5074822;28;20048;-50
2023/03/20 01:11:25;;;;;;;6.28;4.70;;;;;;;18.60;62.36;101392.09;5074782;28;20463;-48
2023/03/20 01:13:52;;;;;;;5.90;4.82;;;;;;;18.60;62.40;101384.91;5073618;28;20036;-52
2023/03/20 01:16:23;;;;;;;7.78;5.45;;;;;;;18.60;62.34;101378.69;5073734;28;20052;-49
2023/03/20 01:18:51;;;;;;;6.20;5.32;;;;;;;18.60;62.21;101373.34;5075432;28;20446;-50
2023/03/20 01:21:20;;;;;;;8.18;5.20;;;;;;;18.59;62.19;101377.81;5073455;28;20063;-50
2023/03/20 01:23:48;;;;;;;6.30;5.07;;;;;;;18.59;62.12;101377.81;5074643;28;20056;-49
2023/03/20 01:26:22;;;;;;;6.47;5.25;;;;;;;18.59;62.15;101379.63;5074450;28;20056;-52
2023/03/20 01:28:50;;;;;;;6.63;5.60;;;;;;;18.59;61.88;101380.50;5074660;28;20045;-48
2023/03/20 01:31:18;;;;;;;5.88;5.28;;;;;;;18.59;62.13;101377.81;5073480;28;20045;-49
2023/03/20 01:33:46;;;;;;;6.60;5.03;;;;;;;18.58;62.25;101376.09;5073464;28;20047;-51
2023/03/20 01:36:20;;;;;;;5.90;4.75;;;;;;;18.58;62.24;101378.78;5074450;28;20060;-52
2023/03/20 01:38:54;;;;;;;7.28;5.07;;;;;;;18.59;61.74;101382.31;5073566;28;20048;-47
2023/03/20 01:41:25;;;;;;;4.80;4.32;;;;;;;18.58;62.03;101384.16;5073325;28;20049;-52
2023/03/20 01:43:53;;;;;;;6.70;5.45;;;;;;;18.59;61.83;101382.31;5073314;28;20056;-56
2023/03/20 01:46:30;;;;;;;7.47;5.82;;;;;;;18.59;61.98;101383.19;5072902;28;20053;-56
2023/03/20 01:49:19;;;;;;;6.18;4.80;;;;;;;18.59;61.66;101369.78;5072890;28;20060;-57
2023/03/20 01:51:50;;;;;;;5.95;4.97;;;;;;;18.59;61.88;101363.56;5073229;28;20072;-56
2023/03/20 01:54:36;;;;;;;6.13;5.05;;;;;;;18.59;61.72;101360.88;5073090;28;20404;-57
2023/03/20 01:57:19;;;;;;;6.95;5.10;;;;;;;18.59;61.47;101363.56;5073051;28;20048;-59
2023/03/20 01:59:59;;;;;;;5.38;4.53;;;;;;;18.58;61.52;101357.34;5072575;28;20053;-57
2023/03/20 02:02:30;;;;;;;5.97;5.07;;;;;;;18.58;61.57;101351.13;5072737;28;20059;-57
2023/03/20 02:05:09;;;;;;;6.70;5.10;;;;;;;18.57;61.54;101355.63;5072938;28;20049;-57
2023/03/20 02:07:38;;;;;;;5.97;4.85;;;;;;;18.58;61.48;101362.69;5072974;28;20049;-57
2023/03/20 02:10:13;;;;;;;5.90;4.80;;;;;;;18.58;61.92;101362.69;5073060;28;20052;-57
2023/03/20 02:12:49;;;;;;;5.82;4.47;;;;;;;18.58;61.57;101357.34;5073213;28;20056;-56
2023/03/20 02:15:26;;;;;;;6.22;5.10;;;;;;;18.58;61.29;101354.66;5072805;28;20055;-48
2023/03/20 02:18:11;;;;;;;6.53;5.00;;;;;;;18.57;61.64;101358.31;5072253;28;20048;-48
2023/03/20 02:21:08;;;;;;;7.18;4.90;;;;;;;18.58;61.25;101343.94;5072635;28;20060;-50
2023/03/20 02:23:58;;;;;;;5.95;4.85;;;;;;;18.59;61.24;101355.50;5072781;28;20055;-49
2023/03/20 02:26:59;;;;;;;6.60;5.00;;;;;;;18.57;61.13;101358.31;5056680;28;20052;-57
2023/03/20 02:30:26;;;;;;;7.75;5.07;;;;;;;18.58;61.07;101354.66;5072169;28;20410;-56
2023/03/20 02:33:21;;;;;;;6.75;5.15;;;;;;;18.58;61.33;101359.16;5071104;28;20053;-55
2023/03/20 02:36:18;;;;;;;7.28;5.00;;;;;;;18.57;61.33;101357.47;5054638;28;20368;-57
2023/03/20 02:38:54;;;;;;;5.75;4.97;;;;;;;18.58;60.89;101349.28;5054321;28;20048;-56
2023/03/20 02:41:34;;;;;;;9.75;5.35;;;;;;;18.58;61.26;101346.63;5054033;28;20100;-56
2023/03/20 02:44:13;;;;;;;5.40;4.28;;;;;;;18.58;61.37;101343.94;5054335;28;20657;-50
2023/03/20 02:46:58;;;;;;;6.65;5.25;;;;;;;18.58;61.13;101333.22;5054115;28;20048;-51
2023/03/20 02:49:29;;;;;;;6.00;4.60;;;;;;;18.58;61.07;101337.72;5054496;28;20066;-50
2023/03/20 02:52:21;;;;;;;6.53;4.57;;;;;;;18.58;61.23;101343.94;5058000;28;20056;-52
2023/03/20 02:55:00;;;;;;;6.07;5.05;;;;;;;18.57;61.06;101347.59;5058055;28;20055;-57
2023/03/20 02:57:49;;;;;;;5.35;4.57;;;;;;;18.58;60.85;101341.25;5058424;28;20051;-56
2023/03/20 03:00:16;;;;;;;6.65;4.80;;;;;;;18.58;61.24;101343.94;5058480;28;20045;-57
2023/03/20 03:02:49;;;;;;;4.97;4.47;;;;;;;18.58;61.14;101338.56;5075227;28;20542;-57
2023/03/20 03:06:05;;;;;;;5.72;4.28;;;;;;;18.58;60.92;101337.72;5075025;28;20052;-52
2023/03/20 03:08:41;;;;;;;5.75;4.28;;;;;;;18.57;61.00;101339.53;5076586;28;20483;-49
2023/03/20 03:11:09;;;;;;;6.68;4.90;;;;;;;18.58;60.86;101340.41;5077325;28;20053;-50
2023/03/20 03:13:45;;;;;;;6.28;4.18;;;;;;;18.57;61.00;101326.13;5076319;28;20048;-50
2023/03/20 03:16:32;;;;;;;6.22;4.68;;;;;;;18.57;60.94;101327.97;5076278;28;20052;-56
2023/03/20 03:19:07;;;;;;;6.68;4.38;;;;;;;18.57;60.94;101331.50;5077608;28;20052;-56
2023/03/20 03:21:37;;;;;;;5.38;4.57;;;;;;;18.57;61.12;101336.88;5076100;28;20475;-56
2023/03/20 03:24:05;;;;;;;5.47;4.50;;;;;;;18.58;61.14;101324.31;5075696;28;20048;-49
2023/03/20 03:26:36;;;;;;;6.28;4.32;;;;;;;18.57;61.10;101323.47;5075454;28;20075;-49
2023/03/20 03:29:12;;;;;;;4.97;3.92;;;;;;;18.57;60.93;101326.13;5075962;28;20063;-51
2023/03/20 03:31:42;;;;;;;7.25;3.88;;;;;;;18.57;60.87;101326.13;5076081;28;20059;-50
2023/03/20 03:34:16;;;;;;;6.45;4.20;;;;;;;18.57;60.88;101323.47;5075762;28;20049;-56
2023/03/20 03:37:02;;;;;;;8.13;4.45;;;;;;;18.58;60.83;101324.31;5075555;28;20056;-56
2023/03/20 03:39:36;;;;;;;4.68;3.88;;;;;;;18.57;60.92;101322.59;5075779;28;20052;-56
2023/03/20 03:42:17;;;;;;;5.90;4.28;;;;;;;18.57;60.80;101315.41;5076540;28;20048;-55
2023/03/20 03:44:51;;;;;;;5.07;4.20;;;;;;;18.57;60.68;101309.19;5076640;28;20056;-50
2023/03/20 03:47:30;;;;;;;4.93;3.65;;;;;;;18.57;60.83;101314.56;5076572;28;20459;-51
2023/03/20 03:50:03;;;;;;;6.75;4.22;;;;;;;18.57;60.95;101314.56;5076560;28;20051;-53
2023/03/20 03:52:32;;;;;;;;;;;;;;;18.57;60.81;101311.88;5075678;28;20048;-52
2023/03/20 03:55:06;;;;;;;4.07;3.45;;;;;;;18.57;60.64;101315.41;5075154;28;19931;-54
2023/03/20 03:57:42;;;;;;;4.60;4.18;;;;;;;18.57;60.56;101314.56;5083103;28;20045;-51
2023/03/20 04:00:17;;;;;;;5.07;3.90;;;;;;;18.57;60.68;101315.41;5075018;28;20049;-51
2023/03/20 04:02:49;;;;;;;4.32;3.58;;;;;;;18.56;60.49;101320.91;5075226;28;20059;-50
2023/03/20 04:05:19;;;;;;;6.93;4.38;;;;;;;18.58;60.35;101318.94;5075349;28;20052;-56
2023/03/20 04:07:51;;;;;;;6.15;4.05;;;;;;;18.57;60.50;101311.88;5074951;28;20057;-56
2023/03/20 04:10:19;;;;;;;5.60;3.67;;;;;;;18.56;60.54;101316.38;5076019;28;20041;-57
2023/03/20 04:12:46;;;;;;;4.35;3.42;;;;;;;18.57;60.62;101320.78;5075902;28;20277;-56
2023/03/20 04:15:16;;;;;;;4.70;3.45;;;;;;;18.57;60.45;101326.13;5074924;28;20075;-56
2023/03/20 04:17:43;;;;;;;5.50;3.38;;;;;;;18.56;60.42;101324.44;5075944;28;20049;-55
2023/03/20 04:20:13;;;;;;;6.97;4.35;;;;;;;18.57;60.42;101331.50;5075451;28;20052;-56
2023/03/20 04:22:40;;;;;;;6.07;4.20;;;;;;;18.57;60.26;101322.59;5074168;28;20051;-56
2023/03/20 04:25:21;;;;;;;4.55;3.63;;;;;;;18.56;60.40;101332.47;5074080;28;20056;-56
2023/03/20 04:27:51;;;;;;;5.82;4.30;;;;;;;18.56;60.46;101327.13;5074286;28;20419;-57
2023/03/20 04:30:52;;;;;;;4.97;4.07;;;;;;;18.56;60.24;101329.81;5075069;28;20063;-57
2023/03/20 04:33:51;;;;;;;5.40;3.97;;;;;;;18.56;60.45;101334.31;5075906;28;20060;-57
2023/03/20 04:36:36;;;;;;;4.47;3.70;;;;;;;18.56;60.37;101335.16;5082374;28;20063;-57
2023/03/20 04:39:06;;;;;;;5.22;3.90;;;;;;;18.56;60.23;101337.00;5073665;28;20048;-57
2023/03/20 04:41:33;;;;;;;5.68;4.15;;;;;;;18.56;60.09;101335.16;5074325;28;20430;-57
2023/03/20 04:44:01;;;;;;;4.60;3.90;;;;;;;18.56;60.09;101331.63;5074270;28;20053;-50
2023/03/20 04:46:31;;;;;;;5.05;4.05;;;;;;;18.56;60.15;101337.00;5075502;28;20071;-50
2023/03/20 04:49:00;;;;;;;5.28;4.13;;;;;;;18.56;60.02;101337.84;5074282;28;20048;-49
2023/03/20 04:51:29;;;;;;;4.97;3.35;;;;;;;18.56;60.04;101342.34;5073848;28;20056;-46
2023/03/20 04:53:57;;;;;;;4.75;3.92;;;;;;;18.55;60.02;101328.06;5075104;28;20059;-53
2023/03/20 04:56:25;;;;;;;5.90;3.85;;;;;;;18.56;60.25;101329.81;5074260;28;20044;-49
2023/03/20 04:58:57;;;;;;;4.75;3.53;;;;;;;18.56;60.13;101332.47;5074208;28;20056;-48
2023/03/20 05:01:25;;;;;;;4.43;3.72;;;;;;;18.56;60.23;101335.16;5074273;28;20056;-47
2023/03/20 05:03:59;;;;;;;5.43;3.55;;;;;;;18.56;59.99;101335.16;5074008;28;20372;-56
2023/03/20 05:06:31;;;;;;;4.57;3.47;;;;;;;18.56;60.08;101340.53;5073803;28;20048;-49
2023/03/20 05:08:59;;;;;;;4.50;3.85;;;;;;;18.56;59.84;101332.47;5073492;28;20052;-51
2023/03/20 05:11:29;;;;;;;4.53;3.55;;;;;;;18.57;59.80;101346.75;5073561;28;20048;-48
2023/03/20 05:14:14;;;;;;;5.97;3.97;;;;;;;18.56;60.27;101342.34;5073962;28;20055;-52
2023/03/20 05:17:07;;;;;;;5.68;3.55;;;;;;;18.56;59.83;101343.22;5074183;28;20053;-48
2023/03/20 05:19:56;;;;;;;5.80;3.67;;;;;;;18.57;59.99;101338.69;5073714;28;20048;-52
2023/03/20 05:22:37;;;;;;;6.20;4.13;;;;;;;18.54;59.72;101331.72;5074697;28;20056;-51
2023/03/20 05:25:24;;;;;;;4.65;3.78;;;;;;;18.56;59.70;101339.66;5074265;28;20494;-52
2023/03/20 05:28:18;;;;;;;5.95;4.38;;;;;;;18.55;59.71;101333.44;5073692;28;20390;-53
2023/03/20 05:31:09;;;;;;;5.00;4.18;;;;;;;18.55;59.84;101333.44;5073887;28;20393;-52
2023/03/20 05:34:02;;;;;;;6.53;4.18;;;;;;;18.56;59.76;101334.31;5074259;28;20059;-51
2023/03/20 05:36:48;;;;;;;6.78;4.10;;;;;;;18.56;59.60;101345.03;5081316;28;20102;-51
2023/03/20 05:39:16;;;;;;;5.25;3.80;;;;;;;18.55;59.75;101349.50;5074310;28;20067;-52
2023/03/20 05:41:52;;;;;;;5.35;3.95;;;;;;;18.56;59.55;101351.25;5072886;28;20048;-48
2023/03/20 05:44:41;;;;;;;6.18;3.88;;;;;;;18.56;59.67;101350.41;5074292;28;20052;-57
2023/03/20 05:47:27;;;;;;;4.95;3.42;;;;;;;18.56;59.47;101358.44;5081162;28;20059;-56
2023/03/20 05:50:19;;;;;;;4.50;3.80;;;;;;;18.55;59.38;101365.59;5073154;28;20053;-56
2023/03/20 05:53:10;;;;;;;4.60;3.65;;;;;;;18.56;59.54;101366.50;5072748;28;20064;-56
2023/03/20 05:56:10;;;;;;;5.72;3.70;;;;;;;18.55;59.46;101365.59;5073334;28;20056;-55
2023/03/20 05:58:41;;;;;;;4.55;4.10;;;;;;;18.55;59.28;101370.97;5074117;28;20060;-56
2023/03/20 06:01:34;;;;;;;5.68;4.40;;;;;;;18.54;59.32;101375.47;5073008;28;20056;-57
2023/03/20 06:04:20;;;;;;;6.82;4.72;;;;;;;18.54;59.09;101374.63;5072773;28;20056;-56
2023/03/20 06:07:07;;;;;;;6.28;4.20;;;;;;;18.54;59.33;101378.16;5068701;28;20052;-56
2023/03/20 06:09:37;;;;;;;5.15;4.07;;;;;;;18.55;59.37;101384.38;5072922;28;20147;-56
2023/03/20 06:12:10;;;;;;;5.03;3.90;;;;;;;18.54;59.14;101380.00;5072855;28;20063;-55
2023/03/20 06:14:37;;;;;;;5.18;3.92;;;;;;;18.54;59.34;101380.84;5073803;28;20045;-57
2023/03/20 06:17:07;;;;;;;6.53;4.47;;;;;;;18.54;59.21;101382.66;5072517;28;20501;-55
2023/03/20 06:19:35;;;;;;;5.50;3.95;;;;;;;18.54;59.03;101388.03;5072654;28;20129;-57
2023/03/20 06:22:03;;;;;;;6.03;4.38;;;;;;;18.54;59.17;101385.34;5073694;28;20048;-57
2023/03/20 06:24:32;;;;;;;5.13;3.83;;;;;;;18.54;59.38;101385.34;5072438;28;20049;-49
2023/03/20 06:26:59;;;;;;;8.10;4.18;;;;;;;18.54;58.95;101394.25;5072001;28;20048;-47
2023/03/20 06:29:28;;;;;;;7.97;4.20;;;;;;;18.55;59.02;101408.50;5072326;28;20056;-50
2023/03/20 06:32:08;;;;;;;5.35;4.15;;;;;;;18.54;58.88;101401.44;5072449;28;20052;-49
2023/03/20 06:34:36;;;;;;;6.85;4.57;;;;;;;18.54;59.16;101401.44;5072542;28;20053;-50
2023/03/20 06:37:03;;;;;;;6.68;4.70;;;;;;;18.54;59.09;101404.97;5071968;28;20052;-49
2023/03/20 06:39:31;;;;;;;5.88;4.45;;;;;;;18.54;59.18;101404.13;5072327;28;20048;-50
2023/03/20 06:41:59;;;;;;;5.97;4.63;;;;;;;18.54;59.28;101401.44;5072234;28;20067;-52
2023/03/20 06:44:27;;;;;;;8.45;4.70;;;;;;;18.53;58.83;101397.91;5071851;28;20048;-59
2023/03/20 06:47:26;;;;;;;5.10;4.15;;;;;;;18.53;59.06;101402.41;5076568;28;20060;-57
2023/03/20 06:49:53;;;;;;;5.55;4.28;;;;;;;18.53;58.80;101405.94;5072036;28;20483;-57
2023/03/20 06:52:21;;;;;;;5.72;4.97;;;;;;;18.52;58.74;101404.25;5072363;28;20051;-57
2023/03/20 06:55:07;;;;;;;6.95;4.18;;;;;;;18.54;58.83;101412.16;5072520;28;20053;-56
2023/03/20 06:57:34;;;;;;;5.43;4.20;;;;;;;18.52;58.73;101414.97;5072557;28;20057;-56
2023/03/20 07:00:04;;;;;;;5.70;4.28;;;;;;;18.52;58.55;101414.97;5071893;28;20407;-56
2023/03/20 07:02:32;;;;;;;6.10;4.78;;;;;;;18.53;58.61;101423.88;5072202;28;20049;-57
2023/03/20 07:04:59;;;;;;;6.63;4.43;;;;;;;18.53;58.66;101421.19;5072498;28;20064;-49
2023/03/20 07:07:28;;;;;;;6.55;4.90;;;;;;;18.53;58.69;101432.75;5072278;28;20059;-48
2023/03/20 07:09:55;;;;;;;5.07;4.40;;;;;;;18.52;58.57;101425.69;5071978;28;20055;-53
2023/03/20 07:12:27;;;;;;;5.88;4.32;;;;;;;18.52;58.54;101428.38;5072163;28;20048;-49
2023/03/20 07:14:57;;;;;;;5.40;4.00;;;;;;;18.53;58.37;101426.53;5056065;28;20486;-57
2023/03/20 07:17:25;;;;;;;5.32;3.97;;;;;;;18.52;58.39;101430.19;5071986;28;20055;-56
2023/03/20 07:19:52;;;;;;;7.90;5.25;;;;;;;18.51;58.72;101426.66;5072172;28;20063;-57
2023/03/20 07:22:23;;;;;;;6.38;4.43;;;;;;;18.53;58.61;101438.13;5071879;28;20059;-57
2023/03/20 07:25:02;;;;;;;5.85;4.80;;;;;;;18.51;58.55;101442.75;5072006;28;20044;-48
2023/03/20 07:27:30;;;;;;;6.65;4.57;;;;;;;18.52;58.40;101441.78;5071983;28;20048;-51
2023/03/20 07:29:57;;;;;;;6.32;4.38;;;;;;;18.52;58.39;101446.28;5072027;28;20053;-48
2023/03/20 07:32:25;;;;;;;6.82;4.22;;;;;;;18.52;58.38;101447.16;5071678;28;20410;-48
2023/03/20 07:34:53;;;;;;;8.98;4.60;;;;;;;18.52;58.18;101439.09;5071894;28;20052;-51
2023/03/20 07:37:21;;;;;;;5.30;4.32;;;;;;;18.53;58.13;101446.16;5072975;28;20049;-51
2023/03/20 07:39:57;;;;;;;7.90;4.85;;;;;;;18.53;58.10;101453.38;5075232;28;20052;-54
2023/03/20 07:42:54;;;;;;;9.60;5.55;;;;;;;18.54;58.29;101455.91;5076584;28;20056;-54
2023/03/20 07:45:40;;;;;;;6.40;4.47;;;;;;;18.53;58.34;101456.03;5083647;28;20421;-55
2023/03/20 07:48:07;;;;;;;14.18;5.53;;;;;;;18.53;58.29;101448.00;5075537;28;20048;-55
2023/03/20 07:50:35;;;;;;;8.38;5.13;;;;;;;18.53;58.13;101456.91;5075606;28;20380;-55
2023/03/20 07:53:02;;;;;;;7.60;4.97;;;;;;;18.53;57.98;101458.72;5076317;28;20049;-55
2023/03/20 07:55:29;;;;;;;8.57;4.47;;;;;;;18.53;58.03;101459.56;5075609;28;20066;-53
2023/03/20 07:57:57;;;;;;;6.80;4.90;;;;;;;18.54;57.86;101457.75;5075973;28;20052;-54
2023/03/20 08:00:24;;;;;;;8.82;6.10;;;;;;;18.54;57.98;101463.97;5074760;28;20418;-54
2023/03/20 08:02:55;;;;;;;8.43;5.75;;;;;;;18.53;58.18;101458.72;5075071;28;20048;-49
2023/03/20 08:05:23;;;;;;;10.10;6.95;;;;;;;18.54;58.06;101468.47;5079339;28;20036;-46
2023/03/20 08:07:51;;;;;;;9.60;6.45;;;;;;;18.54;58.03;101473.84;5096160;28;20044;-47
2023/03/20 08:10:18;;;;;;;11.05;8.00;;;;;;;18.54;58.20;101465.78;5095868;28;20378;-46
2023/03/20 08:12:46;;;;;;;15.02;10.73;;;;;;;18.52;57.37;101473.09;5096191;28;20048;-48
2023/03/20 08:15:13;;;;;;;15.65;11.68;;;;;;;18.51;57.19;101472.25;5096114;28;20509;-52
2023/03/20 08:17:43;;;;;;;13.38;10.63;;;;;;;18.51;57.50;101474.03;5095708;28;20071;-50
2023/03/20 08:20:13;;;;;;;16.08;11.77;;;;;;;18.51;57.40;101469.56;5095847;28;20061;-50
2023/03/20 08:22:41;;;;;;;12.32;10.95;;;;;;;18.49;57.08;101474.16;5095273;28;20059;-50
2023/03/20 08:25:09;;;;;;;15.00;11.15;;;;;;;18.48;57.22;101467.09;5095839;28;20067;-50
2023/03/20 08:27:37;;;;;;;16.33;13.93;;;;;;;18.49;56.76;101484.03;5092048;28;20037;-52
2023/03/20 08:30:05;;;;;;;19.90;15.55;;;;;;;18.48;56.64;101485.88;5074182;28;20063;-50
2023/03/20 08:32:33;;;;;;;16.13;13.73;;;;;;;18.47;56.69;101484.16;5075373;28;20051;-51
2023/03/20 08:35:00;;;;;;;19.55;14.07;;;;;;;18.48;56.69;101490.38;5075504;28;20048;-50
2023/03/20 08:37:28;;;;;;;17.08;12.73;;;;;;;18.46;56.70;101485.09;5074703;28;20052;-50
2023/03/20 08:39:55;;;;;;;14.15;12.40;;;;;;;18.46;56.56;101486.94;5075124;28;20051;-49
2023/03/20 08:42:22;;;;;;;14.05;11.63;;;;;;;18.45;56.83;101493.28;5075080;28;20116;-49
2023/03/20 08:44:49;;;;;;;15.77;13.00;;;;;;;18.45;56.61;101495.94;5074949;28;20394;-50
2023/03/20 08:47:17;;;;;;;14.70;11.93;;;;;;;18.45;56.58;101495.94;5075042;28;20048;-50
2023/03/20 08:49:45;;;;;;;17.63;12.93;;;;;;;18.45;56.42;101493.28;5074661;28;20071;-51
2023/03/20 08:52:12;;;;;;;15.48;12.93;;;;;;;18.43;56.30;101497.88;5075240;28;20470;-51
2023/03/20 08:54:40;;;;;;;13.05;10.95;;;;;;;18.44;56.56;101499.63;5075169;28;20044;-50
2023/03/20 08:57:07;;;;;;;12.55;10.55;;;;;;;18.45;56.42;101502.16;5073852;28;20048;-51
2023/03/20 08:59:34;;;;;;;15.68;9.90;;;;;;;18.44;56.40;101495.09;5074540;28;20048;-50
2023/03/20 09:02:02;;;;;;;14.23;10.00;;;;;;;18.46;56.30;101494.97;5074488;28;20055;-52
2023/03/20 09:04:29;;;;;;;18.33;13.23;;;;;;;18.46;56.07;101489.63;5073482;28;20059;-58
2023/03/20 09:06:57;;;;;;;16.60;13.43;;;;;;;18.38;56.01;101489.31;5074270;28;20383;-57
2023/03/20 09:09:28;;;;;;;15.80;14.07;;;;;;;18.27;56.27;101493.63;5074403;28;20049;-57
2023/03/20 09:11:56;;;;;;;16.38;14.25;;;;;;;18.19;56.39;101501.34;5074941;28;20459;-56
2023/03/20 09:14:25;;;;;;;18.75;14.63;;;;;;;18.10;56.65;101496.63;5074244;28;20506;-57
2023/03/20 09:16:53;;;;;;;22.00;16.60;;;;;;;18.03;56.75;101503.41;5074150;28;20048;-56
2023/03/20 09:19:20;;;;;;;18.63;14.75;;;;;;;18.00;57.04;101503.59;5074011;28;20047;-55
2023/03/20 09:21:48;;;;;;;21.80;14.52;;;;;;;18.01;56.87;101503.47;5074454;28;20067;-52
2023/03/20 09:24:15;;;;;;;28.10;15.95;;;;;;;18.08;59.21;101506.59;5074712;28;20505;-55
2023/03/20 09:26:42;;;;;;;26.25;15.70;;;;;;;18.16;59.72;101514.09;5074069;28;20406;-53
2023/03/20 09:29:10;;;;;;;35.63;21.65;;;;;;;18.20;61.67;101505.75;5073919;28;20055;-52
2023/03/20 09:31:37;;;;;;;33.85;20.73;;;;;;;18.25;62.63;101506.25;5074052;28;20048;-55
2023/03/20 09:34:05;;;;;;;30.65;19.27;;;;;;;18.29;62.60;101504.22;5074140;28;20052;-50
2023/03/20 09:36:32;;;;;;;28.67;19.05;;;;;;;18.34;63.19;101502.06;5074178;28;20067;-52
2023/03/20 09:39:00;;;;;;;41.05;24.17;;;;;;;18.37;61.92;101509.06;5074255;28;20056;-56
2023/03/20 09:41:27;;;;;;;27.13;20.98;;;;;;;18.28;59.13;101499.84;5073776;28;20048;-55
2023/03/20 09:44:07;;;;;;;29.38;21.00;;;;;;;18.17;59.01;101505.94;5073971;28;20052;-55
2023/03/20 09:47:18;;;;;;;29.88;21.10;;;;;;;18.06;58.18;101504.97;5074166;28;20071;-50
2023/03/20 09:50:08;;;;;;;23.73;19.58;;;;;;;17.91;58.04;101504.25;5071198;28;20059;-52
2023/03/20 09:52:58;;;;;;;24.08;18.45;;;;;;;17.82;58.72;101499.50;5058568;28;20064;-50
2023/03/20 09:55:32;;;;;;;26.95;18.65;;;;;;;17.78;58.87;101502.41;5073456;28;20056;-50
2023/03/20 09:58:10;;;;;;;20.95;16.10;;;;;;;17.83;58.85;101501.25;5073795;28;20406;-50
2023/03/20 10:00:41;;;;;;;19.23;14.13;;;;;;;17.88;58.80;101493.75;5073007;28;20052;-50
2023/03/20 10:03:36;;;;;;;17.70;12.98;;;;;;;17.96;58.53;101502.09;5073710;28;20047;-51
2023/03/20 10:06:06;;;;;;;18.95;13.23;;;;;;;18.02;58.34;101493.63;5073947;28;20052;-51
2023/03/20 10:08:36;;;;;;;14.45;11.55;;;;;;;18.08;58.37;101501.25;5073699;28;20052;-51
2023/03/20 10:11:07;;;;;;;17.38;10.35;;;;;;;18.12;58.37;101502.75;5073730;28;20056;-51
2023/03/20 10:14:06;;;;;;;12.32;9.05;;;;;;;18.16;58.43;101503.38;5073585;28;20048;-51
2023/03/20 10:16:52;;;;;;;17.35;10.02;;;;;;;18.19;58.32;101503.16;5073547;28;20044;-53
2023/03/20 10:19:31;;;;;;;13.63;9.07;;;;;;;18.21;58.30;101507.44;5073308;28;20044;-51
2023/03/20 10:22:05;;;;;;;14.38;9.15;;;;;;;18.22;58.28;101511.84;5073505;28;20467;-50
2023/03/20 10:24:38;;;;;;;12.90;8.90;;;;;;;18.23;58.27;101510.91;5073576;28;20051;-51
2023/03/20 10:27:24;;;;;;;16.98;9.48;;;;;;;18.24;58.04;101506.38;5073079;28;20071;-51
2023/03/20 10:30:20;;;;;;;15.25;9.40;;;;;;;18.26;57.85;101509.81;5073577;28;20402;-55
2023/03/20 10:33:13;;;;;;;14.18;9.27;;;;;;;18.26;57.93;101510.66;5073262;28;20376;-55
2023/03/20 10:35:53;;;;;;;12.02;8.63;;;;;;;18.27;57.76;101506.16;5069726;28;20060;-52
2023/03/20 10:38:39;;;;;;;11.65;8.18;;;;;;;18.28;57.58;101498.00;5073224;28;20467;-51
2023/03/20 10:41:15;;;;;;;10.85;7.47;;;;;;;18.29;57.53;101505.09;5072680;28;20040;-54
2023/03/20 10:43:46;;;;;;;11.20;7.72;;;;;;;18.31;57.41;101507.69;5073487;28;20048;-53
2023/03/20 10:46:26;;;;;;;11.77;7.40;;;;;;;18.32;57.38;101489.75;5073129;28;20051;-52
2023/03/20 10:49:32;;;;;;;11.80;7.82;;;;;;;18.33;57.21;101488.78;5063304;28;20072;-55
2023/03/20 10:52:06;;;;;;;11.63;7.80;;;;;;;18.34;57.17;101490.50;5050645;28;20098;-53
2023/03/20 10:54:38;;;;;;;10.98;7.03;;;;;;;18.35;57.25;101487.72;5050964;28;20053;-51
2023/03/20 10:57:12;;;;;;;9.05;6.68;;;;;;;18.36;57.14;101488.59;5052192;28;20067;-52
2023/03/20 10:59:47;;;;;;;11.73;6.65;;;;;;;18.36;57.19;101486.75;5053151;28;20057;-52
2023/03/20 11:02:17;;;;;;;8.75;6.75;;;;;;;18.38;57.02;101486.63;5093067;28;20047;-51
2023/03/20 11:04:44;;;;;;;10.63;6.70;;;;;;;18.37;56.92;101475.06;5093316;28;20070;-50
2023/03/20 11:07:34;;;;;;;10.82;7.07;;;;;;;18.38;56.90;101478.59;5093191;28;20048;-50
2023/03/20 11:10:04;;;;;;;9.52;6.80;;;;;;;18.38;56.75;101490.16;5093186;28;20047;-52
2023/03/20 11:12:47;;;;;;;12.15;6.65;;;;;;;18.39;57.10;101482.97;5096318;28;20048;-53
2023/03/20 11:15:31;;;;;;;8.48;6.43;;;;;;;18.41;57.12;101481.06;5097255;28;20051;-52
2023/03/20 11:17:59;;;;;;;8.95;6.45;;;;;;;18.41;57.08;101479.22;5097088;28;20040;-53
2023/03/20 11:20:34;;;;;;;9.15;6.50;;;;;;;18.41;56.92;101479.22;5097706;28;20052;-54
2023/03/20 11:23:04;;;;;;;8.52;5.90;;;;;;;18.41;56.76;101481.91;5097230;28;20417;-52
2023/03/20 11:26:05;;;;;;;8.30;6.57;;;;;;;18.42;56.73;101466.69;5096681;28;20056;-54
2023/03/20 11:28:38;;;;;;;7.78;6.15;;;;;;;18.42;56.68;101464.84;5096400;28;20166;-53
2023/03/20 11:31:12;;;;;;;7.80;5.30;;;;;;;18.42;56.77;101462.16;5096930;28;20052;-53
2023/03/20 11:33:43;;;;;;;8.38;5.88;;;;;;;18.45;56.79;101453.06;5097059;28;20044;-54
2023/03/20 11:36:17;;;;;;;10.00;5.47;;;;;;;18.46;56.72;101452.94;5096729;28;20044;-49
2023/03/20 11:38:45;;;;;;;8.77;5.55;;;;;;;18.46;56.74;101449.41;5094445;28;20493;-47
2023/03/20 11:41:46;;;;;;;9.82;5.80;;;;;;;18.48;56.56;101445.66;5076240;28;20048;-47
2023/03/20 11:44:22;;;;;;;9.02;5.82;;;;;;;18.48;56.47;101440.28;5076282;28;20044;-54
2023/03/20 11:47:11;;;;;;;7.13;4.72;;;;;;;18.49;56.31;101441.16;5076159;28;20044;-51
2023/03/20 11:49:49;;;;;;;7.65;4.85;;;;;;;18.49;56.44;101430.41;5076343;28;20036;-53
2023/03/20 11:52:21;;;;;;;8.10;5.10;;;;;;;18.50;55.97;101432.13;5076128;28;20049;-55
2023/03/20 11:54:53;;;;;;;6.43;5.18;;;;;;;18.48;56.36;101429.56;5076149;28;20479;-53
2023/03/20 11:57:28;;;;;;;7.38;5.13;;;;;;;18.49;56.33;101415.19;5076126;28;20055;-49